createdAt,value
2022-08-28T00:01:44.539Z,38.80
2022-08-28T00:04:46.559Z,38.70
2022-08-28T00:07:49.308Z,38.70
2022-08-28T00:10:51.670Z,38.70
2022-08-28T00:13:53.801Z,38.70
2022-08-28T00:16:58.823Z,38.70
2022-08-28T00:20:00.969Z,38.50
2022-08-28T00:23:03.049Z,38.50
2022-08-28T00:26:05.204Z,38.50
2022-08-28T00:29:08.325Z,38.60
2022-08-28T00:32:10.959Z,38.60
2022-08-28T00:35:12.914Z,38.70
2022-08-28T00:38:18.671Z,38.70
2022-08-28T00:41:24.875Z,38.70
2022-08-28T00:44:28.889Z,38.70
2022-08-28T00:47:30.939Z,38.70
2022-08-28T00:50:56.813Z,38.60
2022-08-28T00:54:07.361Z,38.70
2022-08-28T00:57:15.059Z,38.80
2022-08-28T01:00:27.537Z,38.70
2022-08-28T01:03:29.668Z,38.50
2022-08-28T01:06:32.062Z,38.50
2022-08-28T01:09:37.738Z,38.60
2022-08-28T01:12:40.684Z,38.70
2022-08-28T01:15:43.284Z,38.70
2022-08-28T01:18:46.934Z,38.70
2022-08-28T01:22:17.608Z,38.70
2022-08-28T01:25:22.298Z,38.70
2022-08-28T01:28:24.521Z,38.70
2022-08-28T01:31:28.943Z,38.80
2022-08-28T01:34:31.652Z,38.70
2022-08-28T01:37:33.595Z,38.70
2022-08-28T01:40:40.010Z,38.60
2022-08-28T01:43:43.461Z,38.50
2022-08-28T01:46:46.045Z,38.50
2022-08-28T01:49:48.278Z,38.40
2022-08-28T01:52:50.384Z,38.40
2022-08-28T01:55:54.683Z,38.50
2022-08-28T01:58:56.888Z,38.40
2022-08-28T02:01:58.973Z,38.40
2022-08-28T02:05:01.116Z,38.30
2022-08-28T02:08:04.716Z,38.30
2022-08-28T02:11:07.402Z,38.40
2022-08-28T02:14:09.721Z,38.30
2022-08-28T02:17:12.128Z,38.40
2022-08-28T02:20:14.636Z,38.60
2022-08-28T02:23:16.998Z,38.40
2022-08-28T02:26:20.876Z,38.50
2022-08-28T02:29:23.586Z,38.20
2022-08-28T02:32:27.016Z,38.10
2022-08-28T02:35:31.290Z,38.10
2022-08-28T02:38:33.304Z,38.00
2022-08-28T02:41:35.506Z,38.00
2022-08-28T02:44:37.552Z,38.00
2022-08-28T02:47:42.387Z,38.10
2022-08-28T02:50:45.202Z,38.10
2022-08-28T02:53:47.375Z,38.20
2022-08-28T02:56:49.819Z,38.20
2022-08-28T02:59:51.879Z,38.20
2022-08-28T03:02:54.364Z,38.20
2022-08-28T03:05:57.165Z,38.10
2022-08-28T03:08:59.969Z,38.10
2022-08-28T03:12:02.362Z,38.10
2022-08-28T03:15:06.101Z,38.10
2022-08-28T03:18:11.128Z,38.00
2022-08-28T03:21:13.557Z,38.00
2022-08-28T03:24:15.818Z,38.00
2022-08-28T03:27:18.181Z,38.10
2022-08-28T03:30:21.794Z,38.10
2022-08-28T03:33:24.814Z,38.00
2022-08-28T03:36:28.510Z,37.80
2022-08-28T03:39:30.463Z,37.80
2022-08-28T03:42:33.945Z,37.80
2022-08-28T03:45:35.925Z,37.80
2022-08-28T03:48:38.600Z,37.80
2022-08-28T03:51:45.477Z,38.00
2022-08-28T03:54:48.090Z,38.00
2022-08-28T03:57:51.571Z,38.10
2022-08-28T04:00:54.174Z,38.00
2022-08-28T04:03:57.042Z,38.10
2022-08-28T04:06:59.921Z,38.20
2022-08-28T04:10:02.144Z,38.00
2022-08-28T04:13:04.256Z,38.10
2022-08-28T04:16:12.134Z,38.20
2022-08-28T04:19:14.322Z,38.10
2022-08-28T04:22:16.418Z,38.00
2022-08-28T04:25:21.465Z,38.00
2022-08-28T04:28:24.323Z,38.00
2022-08-28T04:31:32.335Z,37.90
2022-08-28T04:34:36.640Z,38.10
2022-08-28T04:37:39.866Z,38.10
2022-08-28T04:40:43.116Z,38.00
2022-08-28T04:43:45.410Z,37.90
2022-08-28T04:46:48.406Z,38.00
2022-08-28T04:49:50.705Z,38.10
2022-08-28T04:52:52.639Z,38.30
2022-08-28T04:55:55.977Z,38.40
2022-08-28T04:58:58.448Z,38.50
2022-08-28T05:02:00.564Z,38.40
2022-08-28T05:05:03.293Z,38.60
2022-08-28T05:08:05.383Z,38.50
2022-08-28T05:11:13.813Z,38.50
2022-08-28T05:14:32.914Z,38.50
2022-08-28T05:17:34.826Z,38.60
2022-08-28T05:20:42.425Z,38.50
2022-08-28T05:23:44.457Z,38.60
2022-08-28T05:26:48.319Z,38.80
2022-08-28T05:29:50.996Z,38.80
2022-08-28T05:32:53.927Z,39.00
2022-08-28T05:35:55.885Z,39.10
2022-08-28T05:38:58.542Z,39.10
2022-08-28T05:42:00.505Z,39.00
2022-08-28T05:45:02.625Z,39.20
2022-08-28T05:48:05.618Z,39.20
2022-08-28T05:51:14.529Z,39.40
2022-08-28T05:54:17.148Z,39.60
2022-08-28T05:57:19.230Z,39.80
2022-08-28T06:00:21.466Z,39.80
2022-08-28T06:03:23.596Z,39.90
2022-08-28T06:06:27.604Z,40.10
2022-08-28T06:09:30.332Z,40.30
2022-08-28T06:12:32.538Z,40.50
2022-08-28T06:15:40.912Z,40.70
2022-08-28T06:18:42.840Z,40.70
2022-08-28T06:21:48.081Z,40.80
2022-08-28T06:24:50.016Z,40.80
2022-08-28T06:27:52.126Z,40.80
2022-08-28T06:31:22.963Z,40.60
2022-08-28T06:34:19.254Z,40.70
2022-08-28T06:37:21.255Z,40.70
2022-08-28T06:40:23.440Z,40.70
2022-08-28T06:43:28.258Z,40.80
2022-08-28T06:46:33.178Z,40.80
2022-08-28T06:49:35.681Z,41.00
2022-08-28T06:52:38.214Z,41.00
2022-08-28T06:55:44.258Z,41.10
2022-08-28T06:58:50.248Z,41.30
2022-08-28T07:01:55.428Z,41.60
2022-08-28T07:04:57.645Z,41.70
2022-08-28T07:07:59.831Z,41.90
2022-08-28T07:11:14.789Z,42.30
2022-08-28T07:14:17.109Z,42.40
2022-08-28T07:17:19.351Z,42.80
2022-08-28T07:20:21.323Z,43.00
2022-08-28T07:23:26.077Z,42.90
2022-08-28T07:26:28.133Z,42.80
2022-08-28T07:29:31.278Z,42.80
2022-08-28T07:32:34.017Z,42.90
2022-08-28T07:35:36.152Z,42.70
2022-08-28T07:38:38.503Z,42.40
2022-08-28T07:41:42.741Z,42.10
2022-08-28T07:44:50.925Z,41.90
2022-08-28T07:47:53.003Z,41.70
2022-08-28T07:50:55.467Z,41.70
2022-08-28T07:53:57.880Z,41.30
2022-08-28T07:57:00.014Z,41.20
2022-08-28T08:00:02.540Z,41.20
2022-08-28T08:03:05.050Z,41.20
2022-08-28T08:06:08.051Z,41.20
2022-08-28T08:09:13.847Z,41.30
2022-08-28T08:12:16.012Z,41.50
2022-08-28T08:15:17.987Z,41.50
2022-08-28T08:18:20.841Z,41.50
2022-08-28T08:21:30.076Z,41.40
2022-08-28T08:24:32.997Z,41.40
2022-08-28T08:27:38.810Z,41.30
2022-08-28T08:30:43.669Z,41.20
2022-08-28T08:33:48.548Z,40.90
2022-08-28T08:36:50.652Z,40.60
2022-08-28T08:39:53.817Z,40.40
2022-08-28T08:42:57.146Z,40.30
2022-08-28T08:45:59.237Z,40.30
2022-08-28T08:49:05.859Z,40.00
2022-08-28T08:52:19.120Z,40.30
2022-08-28T08:55:32.054Z,40.30
2022-08-28T08:58:42.826Z,40.30
2022-08-28T09:02:14.029Z,40.00
2022-08-28T09:05:47.046Z,39.90
2022-08-28T09:08:56.978Z,40.30
2022-08-28T09:12:03.065Z,40.70
2022-08-28T09:15:17.592Z,40.80
2022-08-28T09:18:31.047Z,41.10
2022-08-28T09:21:41.106Z,41.30
2022-08-28T09:24:43.088Z,41.30
2022-08-28T09:27:47.634Z,41.30
2022-08-28T09:30:57.526Z,41.10
2022-08-28T09:34:17.226Z,40.80
2022-08-28T09:37:27.034Z,40.80
2022-08-28T09:40:50.584Z,40.90
2022-08-28T09:43:52.791Z,41.10
2022-08-28T09:46:54.933Z,41.20
2022-08-28T09:50:23.277Z,41.40
2022-08-28T09:53:28.419Z,41.20
2022-08-28T09:56:33.650Z,41.00
2022-08-28T09:59:35.876Z,40.90
2022-08-28T10:02:58.212Z,40.80
2022-08-28T10:06:08.683Z,41.10
2022-08-28T10:09:19.526Z,40.80
2022-08-28T10:12:45.773Z,40.90
2022-08-28T10:16:22.628Z,41.00
2022-08-28T10:19:32.279Z,41.30
2022-08-28T10:22:40.385Z,41.40
2022-08-28T10:26:03.300Z,41.50
2022-08-28T10:29:22.351Z,41.50
2022-08-28T10:32:43.041Z,41.50
2022-08-28T10:36:03.262Z,41.40
2022-08-28T10:39:12.389Z,41.50
2022-08-28T10:42:22.836Z,41.60
2022-08-28T10:45:30.586Z,41.50
2022-08-28T10:48:41.274Z,41.30
2022-08-28T10:51:49.753Z,41.10
2022-08-28T10:55:01.518Z,41.00
2022-08-28T10:58:24.523Z,41.10
2022-08-28T11:01:36.631Z,41.20
2022-08-28T11:04:39.013Z,41.40
2022-08-28T11:07:47.663Z,41.50
2022-08-28T11:10:53.160Z,41.50
2022-08-28T11:13:58.082Z,41.60
2022-08-28T11:17:04.957Z,41.50
2022-08-28T11:20:13.262Z,41.60
2022-08-28T11:23:22.560Z,41.60
2022-08-28T11:26:38.795Z,41.60
2022-08-28T11:30:01.468Z,41.60
2022-08-28T11:33:28.421Z,41.50
2022-08-28T11:36:32.392Z,41.50
2022-08-28T11:39:34.507Z,41.50
2022-08-28T11:42:37.688Z,41.50
2022-08-28T11:45:46.517Z,41.50
2022-08-28T11:48:52.377Z,41.50
2022-08-28T11:51:57.099Z,41.50
2022-08-28T11:54:59.393Z,41.50
2022-08-28T11:58:17.025Z,41.50
2022-08-28T12:01:35.452Z,41.30
2022-08-28T12:04:42.676Z,41.50
2022-08-28T12:07:50.191Z,41.50
2022-08-28T12:10:58.015Z,41.30
2022-08-28T12:14:03.507Z,41.30
2022-08-28T12:17:05.801Z,41.20
2022-08-28T12:20:33.835Z,41.20
2022-08-28T12:23:39.882Z,41.20
2022-08-28T12:26:50.358Z,41.20
2022-08-28T12:29:55.239Z,41.10
2022-08-28T12:33:18.382Z,41.10
2022-08-28T12:36:26.785Z,41.00
2022-08-28T12:39:31.551Z,41.00
2022-08-28T12:42:38.074Z,41.10
2022-08-28T12:45:51.618Z,41.10
2022-08-28T12:48:58.639Z,41.10
2022-08-28T12:52:17.248Z,41.10
2022-08-28T12:55:24.224Z,41.10
2022-08-28T12:58:33.938Z,41.20
2022-08-28T13:01:35.941Z,41.30
2022-08-28T13:04:42.132Z,41.20
2022-08-28T13:07:50.896Z,41.20
2022-08-28T13:10:53.215Z,41.30
2022-08-28T13:13:56.562Z,41.50
2022-08-28T13:16:58.774Z,41.60
2022-08-28T13:20:07.687Z,41.70
2022-08-28T13:23:29.130Z,41.80
2022-08-28T13:26:33.695Z,42.00
2022-08-28T13:29:37.018Z,42.00
2022-08-28T13:32:40.091Z,42.00
2022-08-28T13:35:42.850Z,41.90
2022-08-28T13:38:44.921Z,41.70
2022-08-28T13:41:50.516Z,41.50
2022-08-28T13:44:55.921Z,41.50
2022-08-28T13:47:58.006Z,41.50
2022-08-28T13:51:05.544Z,41.10
2022-08-28T13:54:12.893Z,40.70
2022-08-28T13:57:15.704Z,40.90
2022-08-28T14:00:18.092Z,40.90
2022-08-28T14:03:35.790Z,40.90
2022-08-28T14:06:37.935Z,41.10
2022-08-28T14:09:40.216Z,41.10
2022-08-28T14:12:43.627Z,40.90
2022-08-28T14:15:46.464Z,40.80
2022-08-28T14:18:48.620Z,40.80
2022-08-28T14:21:50.723Z,40.90
2022-08-28T14:24:52.989Z,40.80
2022-08-28T14:27:55.812Z,40.70
2022-08-28T14:30:57.961Z,40.80
2022-08-28T14:33:59.958Z,40.90
2022-08-28T14:37:02.996Z,40.80
2022-08-28T14:40:06.362Z,40.80
2022-08-28T14:43:10.123Z,41.00
2022-08-28T14:46:17.209Z,41.00
2022-08-28T14:49:20.772Z,41.00
2022-08-28T14:52:22.904Z,40.90
2022-08-28T14:55:26.358Z,40.90
2022-08-28T14:58:28.252Z,41.00
2022-08-28T15:01:39.819Z,40.90
2022-08-28T15:04:43.124Z,40.80
2022-08-28T15:07:45.698Z,40.80
2022-08-28T15:10:48.596Z,40.90
2022-08-28T15:13:52.389Z,41.00
2022-08-28T15:16:54.422Z,40.90
2022-08-28T15:19:56.661Z,40.90
2022-08-28T15:22:58.673Z,40.90
2022-08-28T15:26:00.947Z,40.90
2022-08-28T15:29:04.165Z,40.30
2022-08-28T15:32:06.984Z,39.60
2022-08-28T15:35:09.325Z,39.40
2022-08-28T15:38:11.590Z,39.30
2022-08-28T15:41:25.488Z,39.50
2022-08-28T15:44:28.599Z,39.50
2022-08-28T15:47:30.627Z,39.20
2022-08-28T15:50:32.998Z,39.50
2022-08-28T15:53:35.452Z,39.50
2022-08-28T15:56:37.634Z,39.80
2022-08-28T15:59:50.176Z,39.90
2022-08-28T16:02:55.805Z,40.00
2022-08-28T16:05:57.777Z,39.30
2022-08-28T16:09:00.013Z,38.90
2022-08-28T16:12:01.947Z,38.40
2022-08-28T16:15:04.655Z,38.40
2022-08-28T16:18:09.014Z,38.50
2022-08-28T16:21:12.341Z,38.80
2022-08-28T16:24:14.280Z,38.70
2022-08-28T16:27:16.828Z,38.70
2022-08-28T16:30:18.956Z,38.70
2022-08-28T16:33:22.295Z,38.50
2022-08-28T16:36:25.236Z,38.70
2022-08-28T16:39:28.095Z,39.00
2022-08-28T16:42:32.843Z,39.20
2022-08-28T16:45:37.304Z,38.90
2022-08-28T16:48:40.337Z,38.40
2022-08-28T16:51:42.529Z,38.10
2022-08-28T16:54:48.446Z,38.30
2022-08-28T16:57:52.327Z,38.00
2022-08-28T17:00:54.994Z,38.10
2022-08-28T17:03:59.156Z,38.40
2022-08-28T17:07:01.780Z,38.70
2022-08-28T17:10:04.758Z,38.80
2022-08-28T17:13:06.654Z,39.00
2022-08-28T17:16:10.109Z,39.10
2022-08-28T17:19:12.127Z,38.50
2022-08-28T17:22:32.551Z,38.20
2022-08-28T17:25:34.578Z,38.00
2022-08-28T17:28:36.791Z,37.70
2022-08-28T17:31:39.160Z,37.90
2022-08-28T17:34:41.561Z,38.20
2022-08-28T17:37:44.698Z,38.40
2022-08-28T17:40:46.888Z,38.10
2022-08-28T17:43:48.799Z,38.30
2022-08-28T17:46:51.813Z,38.30
2022-08-28T17:49:53.819Z,38.50
2022-08-28T17:52:55.950Z,38.40
2022-08-28T17:55:58.345Z,38.40
2022-08-28T17:59:00.550Z,38.60
2022-08-28T18:02:02.651Z,38.70
2022-08-28T18:05:07.288Z,38.60
2022-08-28T18:08:09.508Z,38.60
2022-08-28T18:11:13.473Z,38.60
2022-08-28T18:14:15.627Z,38.40
2022-08-28T18:17:19.427Z,38.20
2022-08-28T18:20:21.746Z,38.20
2022-08-28T18:23:24.039Z,38.30
2022-08-28T18:26:26.157Z,38.30
2022-08-28T18:29:28.721Z,38.30
2022-08-28T18:32:30.890Z,38.10
2022-08-28T18:35:33.721Z,38.30
2022-08-28T18:38:36.940Z,38.20
2022-08-28T18:41:43.813Z,38.30
2022-08-28T18:44:46.937Z,38.20
2022-08-28T18:47:48.928Z,38.20
2022-08-28T18:50:51.162Z,38.20
2022-08-28T18:53:53.231Z,38.10
2022-08-28T18:57:01.351Z,38.30
2022-08-28T19:00:06.984Z,38.20
2022-08-28T19:03:09.381Z,38.30
2022-08-28T19:06:15.840Z,38.10
2022-08-28T19:09:20.701Z,38.20
2022-08-28T19:12:23.177Z,38.30
2022-08-28T19:15:25.261Z,38.20
2022-08-28T19:18:28.694Z,38.20
2022-08-28T19:21:30.876Z,38.10
2022-08-28T19:24:36.308Z,38.10
2022-08-28T19:27:39.255Z,38.00
2022-08-28T19:30:41.398Z,38.20
2022-08-28T19:33:44.471Z,38.20
2022-08-28T19:36:46.492Z,38.20
2022-08-28T19:39:48.598Z,38.10
2022-08-28T19:42:58.557Z,38.10
2022-08-28T19:46:09.347Z,37.90
2022-08-28T19:49:16.381Z,38.00
2022-08-28T19:52:19.066Z,38.00
2022-08-28T19:55:25.968Z,38.00
2022-08-28T19:58:28.408Z,38.00
2022-08-28T20:01:33.049Z,38.00
2022-08-28T20:04:36.203Z,37.90
2022-08-28T20:07:38.111Z,38.00
2022-08-28T20:10:41.421Z,37.80
2022-08-28T20:13:43.797Z,37.90
2022-08-28T20:16:48.528Z,37.80
2022-08-28T20:19:50.623Z,37.90
2022-08-28T20:22:54.150Z,37.90
2022-08-28T20:25:56.636Z,38.00
2022-08-28T20:28:58.702Z,37.90
2022-08-28T20:32:01.279Z,37.70
2022-08-28T20:35:07.067Z,37.60
2022-08-28T20:38:11.045Z,37.60
2022-08-28T20:41:18.315Z,37.60
2022-08-28T20:44:21.585Z,37.70
2022-08-28T20:47:23.687Z,38.00
2022-08-28T20:50:25.571Z,38.10
2022-08-28T20:53:37.594Z,38.00
2022-08-28T20:56:40.411Z,37.90
2022-08-28T20:59:44.298Z,38.00
2022-08-28T21:02:46.239Z,38.10
2022-08-28T21:05:49.006Z,38.20
2022-08-28T21:08:53.273Z,38.10
2022-08-28T21:11:55.393Z,38.20
2022-08-28T21:14:57.531Z,38.20
2022-08-28T21:17:59.783Z,38.30
2022-08-28T21:21:06.161Z,38.10
2022-08-28T21:24:11.032Z,38.00
2022-08-28T21:27:12.965Z,38.20
2022-08-28T21:30:17.610Z,38.30
2022-08-28T21:33:20.216Z,38.40
2022-08-28T21:36:22.318Z,38.40
2022-08-28T21:39:24.259Z,38.40
2022-08-28T21:42:27.568Z,38.30
2022-08-28T21:45:29.494Z,38.30
2022-08-28T21:48:32.026Z,38.40
2022-08-28T21:51:34.047Z,38.20
2022-08-28T21:54:36.882Z,38.40
2022-08-28T21:57:38.937Z,38.30
2022-08-28T22:00:41.148Z,38.10
2022-08-28T22:03:43.156Z,38.20
2022-08-28T22:06:45.267Z,38.20
2022-08-28T22:09:47.337Z,38.20
2022-08-28T22:12:49.452Z,38.10
2022-08-28T22:15:51.457Z,38.10
2022-08-28T22:18:53.767Z,38.00
2022-08-28T22:22:14.489Z,38.00
2022-08-28T22:25:16.638Z,37.90
2022-08-28T22:28:18.680Z,38.00
2022-08-28T22:31:20.969Z,38.00
2022-08-28T22:34:22.908Z,37.90
2022-08-28T22:37:25.877Z,37.80
2022-08-28T22:40:27.940Z,37.80
2022-08-28T22:43:30.134Z,37.70
2022-08-28T22:46:32.055Z,37.70
2022-08-28T22:49:34.700Z,37.60
2022-08-28T22:52:44.923Z,37.60
2022-08-28T22:55:47.018Z,37.50
2022-08-28T22:58:48.893Z,37.50
2022-08-28T23:01:51.092Z,37.10
2022-08-28T23:04:52.948Z,37.10
2022-08-28T23:07:55.445Z,37.30
2022-08-28T23:10:59.221Z,37.30
2022-08-28T23:14:02.371Z,37.20
2022-08-28T23:17:04.476Z,36.90
2022-08-28T23:20:08.603Z,37.00
2022-08-28T23:23:12.589Z,37.20
2022-08-28T23:26:15.867Z,37.20
2022-08-28T23:29:18.123Z,37.20
2022-08-28T23:32:20.692Z,37.00
2022-08-28T23:35:23.034Z,37.00
2022-08-28T23:38:25.782Z,37.10
2022-08-28T23:41:28.122Z,37.20
2022-08-28T23:44:30.451Z,37.10
2022-08-28T23:47:33.342Z,37.10
2022-08-28T23:50:35.981Z,37.10
2022-08-28T23:53:39.392Z,37.10
2022-08-28T23:56:41.847Z,37.10
2022-08-28T23:59:44.278Z,37.00
